sensor_id;sensor_type;location;lat;lon;timestamp;temperature;humidity
4584;DHT22;2304;47.606;12.186;2023-05-10T00:03:50;17.60;67.50
4584;DHT22;2304;47.606;12.186;2023-05-10T00:08:51;17.40;68.00
4584;DHT22;2304;47.606;12.186;2023-05-10T00:13:55;17.30;69.20
4584;DHT22;2304;47.606;12.186;2023-05-10T00:18:56;17.30;69.60
4584;DHT22;2304;47.606;12.186;2023-05-10T00:23:58;17.20;70.60
4584;DHT22;2304;47.606;12.186;2023-05-10T00:29:01;17.20;71.40
4584;DHT22;2304;47.606;12.186;2023-05-10T00:34:03;17.20;72.30
4584;DHT22;2304;47.606;12.186;2023-05-10T00:39:05;17.10;72.70
4584;DHT22;2304;47.606;12.186;2023-05-10T00:44:09;17.10;73.10
4584;DHT22;2304;47.606;12.186;2023-05-10T00:49:11;17.00;73.50
4584;DHT22;2304;47.606;12.186;2023-05-10T00:54:14;17.00;74.70
4584;DHT22;2304;47.606;12.186;2023-05-10T00:59:18;17.00;73.70
4584;DHT22;2304;47.606;12.186;2023-05-10T01:04:20;17.00;74.70
4584;DHT22;2304;47.606;12.186;2023-05-10T01:09:25;16.90;75.10
4584;DHT22;2304;47.606;12.186;2023-05-10T01:14:29;16.90;75.40
4584;DHT22;2304;47.606;12.186;2023-05-10T01:19:33;16.90;75.90
4584;DHT22;2304;47.606;12.186;2023-05-10T01:25:10;16.90;74.90
4584;DHT22;2304;47.606;12.186;2023-05-10T01:30:39;16.80;76.30
4584;DHT22;2304;47.606;12.186;2023-05-10T01:35:50;16.90;75.10
4584;DHT22;2304;47.606;12.186;2023-05-10T01:41:04;16.80;75.60
4584;DHT22;2304;47.606;12.186;2023-05-10T01:46:16;16.80;76.60
4584;DHT22;2304;47.606;12.186;2023-05-10T01:51:23;16.80;77.50
4584;DHT22;2304;47.606;12.186;2023-05-10T01:56:29;16.80;76.90
4584;DHT22;2304;47.606;12.186;2023-05-10T02:01:33;16.80;77.70
4584;DHT22;2304;47.606;12.186;2023-05-10T02:06:40;16.70;78.10
4584;DHT22;2304;47.606;12.186;2023-05-10T02:11:43;16.60;78.20
4584;DHT22;2304;47.606;12.186;2023-05-10T02:16:46;16.70;78.10
4584;DHT22;2304;47.606;12.186;2023-05-10T02:21:53;16.60;78.80
4584;DHT22;2304;47.606;12.186;2023-05-10T02:26:58;16.50;79.40
4584;DHT22;2304;47.606;12.186;2023-05-10T02:32:02;16.50;79.70
4584;DHT22;2304;47.606;12.186;2023-05-10T02:37:05;16.40;80.10
4584;DHT22;2304;47.606;12.186;2023-05-10T02:42:08;16.40;80.50
4584;DHT22;2304;47.606;12.186;2023-05-10T02:47:11;16.40;80.40
4584;DHT22;2304;47.606;12.186;2023-05-10T02:52:18;16.40;79.20
4584;DHT22;2304;47.606;12.186;2023-05-10T02:57:25;16.50;79.70
4584;DHT22;2304;47.606;12.186;2023-05-10T03:02:27;16.30;81.20
4584;DHT22;2304;47.606;12.186;2023-05-10T03:07:32;16.30;80.70
4584;DHT22;2304;47.606;12.186;2023-05-10T03:12:47;16.30;81.10
4584;DHT22;2304;47.606;12.186;2023-05-10T03:17:55;16.30;80.70
4584;DHT22;2304;47.606;12.186;2023-05-10T03:23:04;16.40;79.50
4584;DHT22;2304;47.606;12.186;2023-05-10T03:28:06;16.50;80.60
4584;DHT22;2304;47.606;12.186;2023-05-10T03:33:08;16.30;81.30
4584;DHT22;2304;47.606;12.186;2023-05-10T03:38:12;16.30;80.60
4584;DHT22;2304;47.606;12.186;2023-05-10T03:43:14;16.40;80.80
4584;DHT22;2304;47.606;12.186;2023-05-10T03:48:16;16.30;80.40
4584;DHT22;2304;47.606;12.186;2023-05-10T03:53:19;16.20;81.70
4584;DHT22;2304;47.606;12.186;2023-05-10T03:58:21;16.20;81.40
4584;DHT22;2304;47.606;12.186;2023-05-10T04:03:22;16.20;82.30
4584;DHT22;2304;47.606;12.186;2023-05-10T04:08:27;16.20;81.70
4584;DHT22;2304;47.606;12.186;2023-05-10T04:13:29;16.20;81.50
4584;DHT22;2304;47.606;12.186;2023-05-10T04:18:31;16.30;82.60
4584;DHT22;2304;47.606;12.186;2023-05-10T04:23:34;16.30;82.50
4584;DHT22;2304;47.606;12.186;2023-05-10T04:28:36;16.30;81.80
4584;DHT22;2304;47.606;12.186;2023-05-10T04:33:38;16.30;81.90
4584;DHT22;2304;47.606;12.186;2023-05-10T04:38:41;16.30;81.30
4584;DHT22;2304;47.606;12.186;2023-05-10T04:43:43;16.30;80.80
4584;DHT22;2304;47.606;12.186;2023-05-10T04:48:45;16.30;81.40
4584;DHT22;2304;47.606;12.186;2023-05-10T04:53:48;16.30;82.00
4584;DHT22;2304;47.606;12.186;2023-05-10T04:58:50;16.20;81.60
4584;DHT22;2304;47.606;12.186;2023-05-10T05:03:51;16.20;81.90
4584;DHT22;2304;47.606;12.186;2023-05-10T05:08:55;16.50;81.90
4584;DHT22;2304;47.606;12.186;2023-05-10T05:13:57;16.20;82.00
4584;DHT22;2304;47.606;12.186;2023-05-10T05:19:00;16.20;82.30
4584;DHT22;2304;47.606;12.186;2023-05-10T05:24:04;16.30;82.70
4584;DHT22;2304;47.606;12.186;2023-05-10T05:29:06;16.30;82.70
4584;DHT22;2304;47.606;12.186;2023-05-10T05:34:08;16.30;82.70
4584;DHT22;2304;47.606;12.186;2023-05-10T05:39:11;16.40;82.10
4584;DHT22;2304;47.606;12.186;2023-05-10T05:44:13;16.50;82.10
4584;DHT22;2304;47.606;12.186;2023-05-10T05:49:15;16.50;82.20
4584;DHT22;2304;47.606;12.186;2023-05-10T05:54:18;16.50;82.10
4584;DHT22;2304;47.606;12.186;2023-05-10T05:59:20;16.50;81.80
4584;DHT22;2304;47.606;12.186;2023-05-10T06:04:22;16.70;82.40
4584;DHT22;2304;47.606;12.186;2023-05-10T06:09:25;16.50;82.20
4584;DHT22;2304;47.606;12.186;2023-05-10T06:14:27;16.50;81.60
4584;DHT22;2304;47.606;12.186;2023-05-10T06:19:28;16.50;81.70
4584;DHT22;2304;47.606;12.186;2023-05-10T06:24:32;16.50;81.90
4584;DHT22;2304;47.606;12.186;2023-05-10T06:29:34;16.50;81.30
4584;DHT22;2304;47.606;12.186;2023-05-10T06:34:36;16.50;81.40
4584;DHT22;2304;47.606;12.186;2023-05-10T06:39:39;16.50;81.60
4584;DHT22;2304;47.606;12.186;2023-05-10T06:44:41;16.70;81.80
4584;DHT22;2304;47.606;12.186;2023-05-10T06:49:43;16.40;80.90
4584;DHT22;2304;47.606;12.186;2023-05-10T06:54:47;16.60;81.50
4584;DHT22;2304;47.606;12.186;2023-05-10T06:59:48;16.50;81.80
4584;DHT22;2304;47.606;12.186;2023-05-10T07:04:50;16.20;81.10
4584;DHT22;2304;47.606;12.186;2023-05-10T07:09:54;16.50;81.40
4584;DHT22;2304;47.606;12.186;2023-05-10T07:14:57;16.70;81.40
4584;DHT22;2304;47.606;12.186;2023-05-10T07:19:58;16.50;80.90
4584;DHT22;2304;47.606;12.186;2023-05-10T07:25:02;16.40;80.90
4584;DHT22;2304;47.606;12.186;2023-05-10T07:30:04;16.40;81.20
4584;DHT22;2304;47.606;12.186;2023-05-10T07:35:07;16.30;81.70
4584;DHT22;2304;47.606;12.186;2023-05-10T07:40:10;16.40;80.90
4584;DHT22;2304;47.606;12.186;2023-05-10T07:45:12;16.20;80.30
4584;DHT22;2304;47.606;12.186;2023-05-10T07:50:14;16.10;81.00
4584;DHT22;2304;47.606;12.186;2023-05-10T07:55:18;16.10;81.40
4584;DHT22;2304;47.606;12.186;2023-05-10T08:00:21;16.20;81.70
4584;DHT22;2304;47.606;12.186;2023-05-10T08:05:23;16.10;81.10
4584;DHT22;2304;47.606;12.186;2023-05-10T08:10:26;16.10;80.30
4584;DHT22;2304;47.606;12.186;2023-05-10T08:15:28;16.20;79.90
4584;DHT22;2304;47.606;12.186;2023-05-10T08:20:30;16.20;78.30
4584;DHT22;2304;47.606;12.186;2023-05-10T08:25:33;16.20;76.90
4584;DHT22;2304;47.606;12.186;2023-05-10T08:30:35;16.30;77.70
4584;DHT22;2304;47.606;12.186;2023-05-10T08:35:36;16.30;77.50
4584;DHT22;2304;47.606;12.186;2023-05-10T08:40:42;16.50;78.20
4584;DHT22;2304;47.606;12.186;2023-05-10T08:45:44;16.50;77.40
4584;DHT22;2304;47.606;12.186;2023-05-10T08:50:48;16.50;77.50
4584;DHT22;2304;47.606;12.186;2023-05-10T08:55:51;16.50;77.20
4584;DHT22;2304;47.606;12.186;2023-05-10T09:00:53;16.60;78.50
4584;DHT22;2304;47.606;12.186;2023-05-10T09:05:56;16.50;79.30
4584;DHT22;2304;47.606;12.186;2023-05-10T09:11:00;16.50;78.10
4584;DHT22;2304;47.606;12.186;2023-05-10T09:16:03;16.60;78.20
4584;DHT22;2304;47.606;12.186;2023-05-10T09:21:05;16.60;78.50
4584;DHT22;2304;47.606;12.186;2023-05-10T09:26:09;16.90;78.80
4584;DHT22;2304;47.606;12.186;2023-05-10T09:31:10;16.80;77.00
4584;DHT22;2304;47.606;12.186;2023-05-10T09:36:14;16.70;75.40
4584;DHT22;2304;47.606;12.186;2023-05-10T09:41:18;16.60;75.60
4584;DHT22;2304;47.606;12.186;2023-05-10T09:46:21;16.70;75.00
4584;DHT22;2304;47.606;12.186;2023-05-10T09:51:24;16.80;75.00
4584;DHT22;2304;47.606;12.186;2023-05-10T09:56:35;16.90;74.50
4584;DHT22;2304;47.606;12.186;2023-05-10T10:01:39;17.10;71.80
4584;DHT22;2304;47.606;12.186;2023-05-10T10:06:42;17.30;72.20
4584;DHT22;2304;47.606;12.186;2023-05-10T10:11:45;17.60;73.00
4584;DHT22;2304;47.606;12.186;2023-05-10T10:16:47;17.90;72.70
4584;DHT22;2304;47.606;12.186;2023-05-10T10:21:50;18.00;68.90
4584;DHT22;2304;47.606;12.186;2023-05-10T10:26:57;18.10;69.40
4584;DHT22;2304;47.606;12.186;2023-05-10T10:32:09;18.00;71.00
4584;DHT22;2304;47.606;12.186;2023-05-10T10:37:13;18.00;73.50
4584;DHT22;2304;47.606;12.186;2023-05-10T10:42:46;18.00;72.90
4584;DHT22;2304;47.606;12.186;2023-05-10T10:53:10;17.60;72.80
4584;DHT22;2304;47.606;12.186;2023-05-10T10:58:28;17.50;74.10
4584;DHT22;2304;47.606;12.186;2023-05-10T11:03:31;17.20;75.70
4584;DHT22;2304;47.606;12.186;2023-05-10T11:08:34;17.10;77.20
4584;DHT22;2304;47.606;12.186;2023-05-10T11:13:43;17.20;77.20
4584;DHT22;2304;47.606;12.186;2023-05-10T11:18:58;17.20;73.80
4584;DHT22;2304;47.606;12.186;2023-05-10T11:24:02;17.20;72.60
4584;DHT22;2304;47.606;12.186;2023-05-10T11:29:07;17.20;73.30
4584;DHT22;2304;47.606;12.186;2023-05-10T11:34:09;17.20;71.90
4584;DHT22;2304;47.606;12.186;2023-05-10T11:39:11;17.10;72.50
4584;DHT22;2304;47.606;12.186;2023-05-10T11:44:14;17.00;72.80
4584;DHT22;2304;47.606;12.186;2023-05-10T11:49:17;17.20;73.80
4584;DHT22;2304;47.606;12.186;2023-05-10T11:54:19;17.30;73.70
4584;DHT22;2304;47.606;12.186;2023-05-10T11:59:22;17.30;73.30
4584;DHT22;2304;47.606;12.186;2023-05-10T12:04:24;17.20;72.80
4584;DHT22;2304;47.606;12.186;2023-05-10T12:09:26;17.10;73.40
4584;DHT22;2304;47.606;12.186;2023-05-10T12:14:29;17.10;73.20
4584;DHT22;2304;47.606;12.186;2023-05-10T12:19:38;17.10;74.00
4584;DHT22;2304;47.606;12.186;2023-05-10T12:24:40;17.20;73.80
4584;DHT22;2304;47.606;12.186;2023-05-10T12:29:43;17.30;73.40
4584;DHT22;2304;47.606;12.186;2023-05-10T12:34:46;17.50;73.60
4584;DHT22;2304;47.606;12.186;2023-05-10T12:39:48;17.70;73.10
4584;DHT22;2304;47.606;12.186;2023-05-10T12:44:56;17.80;71.50
4584;DHT22;2304;47.606;12.186;2023-05-10T12:49:58;17.80;70.90
4584;DHT22;2304;47.606;12.186;2023-05-10T12:55:01;17.80;72.20
4584;DHT22;2304;47.606;12.186;2023-05-10T13:00:06;18.00;70.40
4584;DHT22;2304;47.606;12.186;2023-05-10T13:05:08;18.10;71.10
4584;DHT22;2304;47.606;12.186;2023-05-10T13:10:10;18.00;71.30
4584;DHT22;2304;47.606;12.186;2023-05-10T13:15:13;18.00;70.40
4584;DHT22;2304;47.606;12.186;2023-05-10T13:20:15;18.10;68.90
4584;DHT22;2304;47.606;12.186;2023-05-10T13:25:17;18.00;66.90
4584;DHT22;2304;47.606;12.186;2023-05-10T13:30:20;18.10;69.20
4584;DHT22;2304;47.606;12.186;2023-05-10T13:35:22;17.80;69.70
4584;DHT22;2304;47.606;12.186;2023-05-10T13:40:24;17.90;69.10
4584;DHT22;2304;47.606;12.186;2023-05-10T13:45:27;17.70;70.80
4584;DHT22;2304;47.606;12.186;2023-05-10T13:50:30;17.60;71.10
4584;DHT22;2304;47.606;12.186;2023-05-10T13:55:31;17.60;70.40
4584;DHT22;2304;47.606;12.186;2023-05-10T14:00:35;17.40;70.00
4584;DHT22;2304;47.606;12.186;2023-05-10T14:05:37;17.30;69.90
4584;DHT22;2304;47.606;12.186;2023-05-10T14:10:39;17.30;70.60
4584;DHT22;2304;47.606;12.186;2023-05-10T14:15:42;17.40;71.20
4584;DHT22;2304;47.606;12.186;2023-05-10T14:20:44;17.20;71.50
4584;DHT22;2304;47.606;12.186;2023-05-10T14:25:45;17.10;71.30
4584;DHT22;2304;47.606;12.186;2023-05-10T14:30:49;17.00;71.50
4584;DHT22;2304;47.606;12.186;2023-05-10T14:35:50;16.90;70.90
4584;DHT22;2304;47.606;12.186;2023-05-10T14:40:52;16.90;71.00
4584;DHT22;2304;47.606;12.186;2023-05-10T14:45:55;17.10;70.10
4584;DHT22;2304;47.606;12.186;2023-05-10T14:50:57;16.80;70.30
4584;DHT22;2304;47.606;12.186;2023-05-10T14:55:59;16.80;70.50
4584;DHT22;2304;47.606;12.186;2023-05-10T15:01:03;16.70;72.00
4584;DHT22;2304;47.606;12.186;2023-05-10T15:06:05;16.70;71.80
4584;DHT22;2304;47.606;12.186;2023-05-10T15:11:07;16.70;70.80
4584;DHT22;2304;47.606;12.186;2023-05-10T15:16:10;16.60;71.70
4584;DHT22;2304;47.606;12.186;2023-05-10T15:21:12;16.60;70.10
4584;DHT22;2304;47.606;12.186;2023-05-10T15:26:14;16.50;70.80
4584;DHT22;2304;47.606;12.186;2023-05-10T15:31:17;16.50;70.90
4584;DHT22;2304;47.606;12.186;2023-05-10T15:36:19;16.40;70.80
4584;DHT22;2304;47.606;12.186;2023-05-10T15:41:21;16.30;70.00
4584;DHT22;2304;47.606;12.186;2023-05-10T15:46:24;16.20;69.50
4584;DHT22;2304;47.606;12.186;2023-05-10T15:51:26;16.20;70.30
4584;DHT22;2304;47.606;12.186;2023-05-10T15:56:28;16.20;71.60
4584;DHT22;2304;47.606;12.186;2023-05-10T16:01:31;16.20;72.30
4584;DHT22;2304;47.606;12.186;2023-05-10T16:06:34;16.30;72.40
4584;DHT22;2304;47.606;12.186;2023-05-10T16:11:36;16.00;73.50
4584;DHT22;2304;47.606;12.186;2023-05-10T16:16:39;16.00;72.30
4584;DHT22;2304;47.606;12.186;2023-05-10T16:21:41;15.90;72.30
4584;DHT22;2304;47.606;12.186;2023-05-10T16:26:43;15.80;72.60
4584;DHT22;2304;47.606;12.186;2023-05-10T16:31:46;15.90;73.10
4584;DHT22;2304;47.606;12.186;2023-05-10T16:36:48;15.90;73.30
4584;DHT22;2304;47.606;12.186;2023-05-10T16:41:49;15.80;73.50
4584;DHT22;2304;47.606;12.186;2023-05-10T16:46:53;15.80;74.30
4584;DHT22;2304;47.606;12.186;2023-05-10T16:51:55;15.80;74.60
4584;DHT22;2304;47.606;12.186;2023-05-10T16:56:57;15.60;75.00
4584;DHT22;2304;47.606;12.186;2023-05-10T17:02:00;15.50;75.40
4584;DHT22;2304;47.606;12.186;2023-05-10T17:07:02;15.60;76.20
4584;DHT22;2304;47.606;12.186;2023-05-10T17:12:04;15.50;75.60
4584;DHT22;2304;47.606;12.186;2023-05-10T17:17:07;15.50;76.40
4584;DHT22;2304;47.606;12.186;2023-05-10T17:22:09;15.40;75.40
4584;DHT22;2304;47.606;12.186;2023-05-10T17:27:12;15.30;75.10
4584;DHT22;2304;47.606;12.186;2023-05-10T17:32:15;15.20;75.40
4584;DHT22;2304;47.606;12.186;2023-05-10T17:37:17;15.10;75.70
4584;DHT22;2304;47.606;12.186;2023-05-10T17:42:19;15.10;75.60
4584;DHT22;2304;47.606;12.186;2023-05-10T17:47:22;15.00;76.60
4584;DHT22;2304;47.606;12.186;2023-05-10T17:52:24;14.90;76.50
4584;DHT22;2304;47.606;12.186;2023-05-10T17:57:26;14.90;75.70
4584;DHT22;2304;47.606;12.186;2023-05-10T18:02:29;14.80;74.70
4584;DHT22;2304;47.606;12.186;2023-05-10T18:07:31;14.80;73.80
4584;DHT22;2304;47.606;12.186;2023-05-10T18:12:34;14.80;74.40
4584;DHT22;2304;47.606;12.186;2023-05-10T18:17:37;14.70;75.00
4584;DHT22;2304;47.606;12.186;2023-05-10T18:22:39;14.70;75.30
4584;DHT22;2304;47.606;12.186;2023-05-10T18:27:41;14.70;74.90
4584;DHT22;2304;47.606;12.186;2023-05-10T18:32:44;14.70;74.50
4584;DHT22;2304;47.606;12.186;2023-05-10T18:37:46;14.70;74.50
4584;DHT22;2304;47.606;12.186;2023-05-10T18:42:48;14.60;74.50
4584;DHT22;2304;47.606;12.186;2023-05-10T18:47:51;14.70;75.60
4584;DHT22;2304;47.606;12.186;2023-05-10T18:52:53;14.50;75.60
4584;DHT22;2304;47.606;12.186;2023-05-10T18:57:56;14.50;76.10
4584;DHT22;2304;47.606;12.186;2023-05-10T19:02:59;14.50;76.60
4584;DHT22;2304;47.606;12.186;2023-05-10T19:08:01;14.50;76.90
4584;DHT22;2304;47.606;12.186;2023-05-10T19:13:02;14.40;76.70
4584;DHT22;2304;47.606;12.186;2023-05-10T19:18:06;14.30;76.50
4584;DHT22;2304;47.606;12.186;2023-05-10T19:23:08;14.20;77.20
4584;DHT22;2304;47.606;12.186;2023-05-10T19:28:09;14.20;77.00
4584;DHT22;2304;47.606;12.186;2023-05-10T19:33:12;14.10;76.50
4584;DHT22;2304;47.606;12.186;2023-05-10T19:38:14;14.00;75.70
4584;DHT22;2304;47.606;12.186;2023-05-10T19:43:16;13.90;75.30
4584;DHT22;2304;47.606;12.186;2023-05-10T19:48:19;13.70;75.60
4584;DHT22;2304;47.606;12.186;2023-05-10T19:53:21;13.60;76.30
4584;DHT22;2304;47.606;12.186;2023-05-10T19:58:23;13.60;77.20
4584;DHT22;2304;47.606;12.186;2023-05-10T20:03:26;13.60;77.70
4584;DHT22;2304;47.606;12.186;2023-05-10T20:08:28;13.50;78.50
4584;DHT22;2304;47.606;12.186;2023-05-10T20:13:30;13.40;79.00
4584;DHT22;2304;47.606;12.186;2023-05-10T20:18:34;13.40;78.10
4584;DHT22;2304;47.606;12.186;2023-05-10T20:23:37;13.30;77.40
4584;DHT22;2304;47.606;12.186;2023-05-10T20:28:39;13.20;77.70
4584;DHT22;2304;47.606;12.186;2023-05-10T20:33:43;13.20;77.80
4584;DHT22;2304;47.606;12.186;2023-05-10T20:38:44;13.20;78.20
4584;DHT22;2304;47.606;12.186;2023-05-10T20:43:46;13.10;78.00
4584;DHT22;2304;47.606;12.186;2023-05-10T20:48:49;13.10;77.60
4584;DHT22;2304;47.606;12.186;2023-05-10T20:53:51;13.10;77.50
4584;DHT22;2304;47.606;12.186;2023-05-10T20:58:53;13.10;77.50
4584;DHT22;2304;47.606;12.186;2023-05-10T21:03:56;13.00;78.00
4584;DHT22;2304;47.606;12.186;2023-05-10T21:08:58;12.80;78.80
4584;DHT22;2304;47.606;12.186;2023-05-10T21:13:59;12.80;79.10
4584;DHT22;2304;47.606;12.186;2023-05-10T21:19:03;12.80;79.20
4584;DHT22;2304;47.606;12.186;2023-05-10T21:24:06;12.80;80.00
4584;DHT22;2304;47.606;12.186;2023-05-10T21:29:08;12.80;79.90
4584;DHT22;2304;47.606;12.186;2023-05-10T21:34:11;12.70;79.10
4584;DHT22;2304;47.606;12.186;2023-05-10T21:39:13;12.60;79.30
4584;DHT22;2304;47.606;12.186;2023-05-10T21:44:15;12.50;79.90
4584;DHT22;2304;47.606;12.186;2023-05-10T21:49:18;12.50;81.10
4584;DHT22;2304;47.606;12.186;2023-05-10T21:54:20;12.50;81.50
4584;DHT22;2304;47.606;12.186;2023-05-10T21:59:22;12.40;81.50
4584;DHT22;2304;47.606;12.186;2023-05-10T22:04:25;12.40;82.60
4584;DHT22;2304;47.606;12.186;2023-05-10T22:09:27;12.30;83.20
4584;DHT22;2304;47.606;12.186;2023-05-10T22:14:29;12.30;83.30
4584;DHT22;2304;47.606;12.186;2023-05-10T22:19:32;12.20;84.20
4584;DHT22;2304;47.606;12.186;2023-05-10T22:24:34;12.20;84.30
4584;DHT22;2304;47.606;12.186;2023-05-10T22:29:36;12.30;84.20
4584;DHT22;2304;47.606;12.186;2023-05-10T22:34:39;12.20;83.00
4584;DHT22;2304;47.606;12.186;2023-05-10T22:39:42;12.10;83.60
4584;DHT22;2304;47.606;12.186;2023-05-10T22:44:44;12.10;84.20
4584;DHT22;2304;47.606;12.186;2023-05-10T22:49:47;12.10;84.50
4584;DHT22;2304;47.606;12.186;2023-05-10T22:54:49;12.10;84.50
4584;DHT22;2304;47.606;12.186;2023-05-10T22:59:51;12.10;84.70
4584;DHT22;2304;47.606;12.186;2023-05-10T23:04:54;12.00;84.10
4584;DHT22;2304;47.606;12.186;2023-05-10T23:09:56;12.00;84.00
4584;DHT22;2304;47.606;12.186;2023-05-10T23:14:58;11.90;84.60
4584;DHT22;2304;47.606;12.186;2023-05-10T23:20:01;11.90;85.40
4584;DHT22;2304;47.606;12.186;2023-05-10T23:25:03;11.80;85.70
4584;DHT22;2304;47.606;12.186;2023-05-10T23:30:06;11.80;86.20
4584;DHT22;2304;47.606;12.186;2023-05-10T23:35:10;11.80;86.40
4584;DHT22;2304;47.606;12.186;2023-05-10T23:40:12;11.80;86.40
4584;DHT22;2304;47.606;12.186;2023-05-10T23:45:14;11.70;86.20
4584;DHT22;2304;47.606;12.186;2023-05-10T23:50:18;11.70;86.60
4584;DHT22;2304;47.606;12.186;2023-05-10T23:55:19;11.80;86.90
